createdAt,value
2022-11-21T00:03:29.340Z,99503.15
2022-11-21T00:08:32.444Z,99497.64
2022-11-21T00:13:35.755Z,99488.55
2022-11-21T00:18:38.859Z,99487.48
2022-11-21T00:23:44.065Z,99484.46
2022-11-21T00:28:47.427Z,99480.45
2022-11-21T00:33:50.633Z,99480.05
2022-11-21T00:38:54.152Z,99479.40
2022-11-21T00:43:57.252Z,99484.73
2022-11-21T00:49:00.518Z,99491.29
2022-11-21T00:54:03.569Z,99500.11
2022-11-21T00:59:06.674Z,99494.02
2022-11-21T01:04:10.093Z,99497.31
2022-11-21T01:09:13.194Z,99497.75
2022-11-21T01:14:16.294Z,99500.90
2022-11-21T01:19:19.706Z,99501.76
2022-11-21T01:24:23.325Z,99505.31
2022-11-21T01:29:27.835Z,99506.56
2022-11-21T01:34:30.970Z,99515.16
2022-11-21T01:39:34.382Z,99522.36
2022-11-21T01:44:50.433Z,99530.77
2022-11-21T01:49:54.109Z,99519.84
2022-11-21T01:54:57.111Z,99509.07
2022-11-21T02:00:00.126Z,99507.73
2022-11-21T02:05:07.730Z,99508.65
2022-11-21T02:10:12.511Z,99500.45
2022-11-21T02:15:17.727Z,99491.59
2022-11-21T02:20:26.358Z,99494.17
2022-11-21T02:25:31.683Z,99502.42
2022-11-21T02:30:38.041Z,99502.60
2022-11-21T02:35:41.818Z,99511.19
2022-11-21T02:40:55.593Z,99508.83
2022-11-21T02:45:59.395Z,99509.27
2022-11-21T02:51:02.708Z,99508.58
2022-11-21T02:56:05.913Z,99502.79
2022-11-21T03:01:09.461Z,99501.30
2022-11-21T03:06:12.606Z,99503.27
2022-11-21T03:11:15.945Z,99511.22
2022-11-21T03:16:19.154Z,99511.90
2022-11-21T03:21:22.463Z,99510.05
2022-11-21T03:26:26.898Z,99514.04
2022-11-21T03:31:30.007Z,99515.24
2022-11-21T03:36:33.418Z,99521.84
2022-11-21T03:41:36.931Z,99535.02
2022-11-21T03:46:43.004Z,99541.15
2022-11-21T03:51:46.010Z,99539.47
2022-11-21T03:56:49.216Z,99531.75
2022-11-21T04:01:52.365Z,99532.77
2022-11-21T04:06:55.738Z,99533.02
2022-11-21T04:11:58.942Z,99531.18
2022-11-21T04:17:02.458Z,99521.60
2022-11-21T04:22:05.665Z,99522.67
2022-11-21T04:27:09.487Z,99517.29
2022-11-21T04:32:12.491Z,99512.64
2022-11-21T04:37:15.632Z,99516.30
2022-11-21T04:42:19.006Z,99516.89
2022-11-21T04:47:22.229Z,99515.09
2022-11-21T04:52:25.526Z,99517.91
2022-11-21T04:57:29.144Z,99525.68
2022-11-21T05:02:33.678Z,99534.73
2022-11-21T05:07:37.017Z,99535.34
2022-11-21T05:12:59.347Z,99533.21
2022-11-21T05:18:02.453Z,99527.02
2022-11-21T05:23:05.973Z,99526.05
2022-11-21T05:28:10.119Z,99526.45
2022-11-21T05:33:13.136Z,99524.03
2022-11-21T05:38:16.204Z,99524.81
2022-11-21T05:43:38.151Z,99519.96
2022-11-21T05:48:41.870Z,99512.24
2022-11-21T05:53:45.663Z,99506.11
2022-11-21T05:58:48.800Z,99502.70
2022-11-21T06:03:51.804Z,99503.46
2022-11-21T06:08:54.910Z,99491.88
2022-11-21T06:13:58.013Z,99495.08
2022-11-21T06:19:01.222Z,99489.36
2022-11-21T06:24:05.726Z,99490.52
2022-11-21T06:29:12.217Z,99491.02
2022-11-21T06:34:15.351Z,99488.80
2022-11-21T06:39:18.558Z,99487.70
2022-11-21T06:44:21.665Z,99490.38
2022-11-21T06:49:24.874Z,99496.48
2022-11-21T06:54:28.520Z,99504.35
2022-11-21T06:59:33.644Z,99511.29
2022-11-21T07:04:37.260Z,99517.27
2022-11-21T07:09:40.465Z,99511.36
2022-11-21T07:14:43.674Z,99501.48
2022-11-21T07:19:47.858Z,99505.95
2022-11-21T07:24:51.115Z,99503.39
2022-11-21T07:29:54.325Z,99498.27
2022-11-21T07:34:57.633Z,99503.02
2022-11-21T07:40:01.146Z,99508.45
2022-11-21T07:45:05.925Z,99515.44
2022-11-21T07:50:11.569Z,99526.79
2022-11-21T07:55:14.970Z,99524.84
2022-11-21T08:00:18.835Z,99528.76
2022-11-21T08:05:23.537Z,99527.34
2022-11-21T08:10:27.504Z,99529.87
2022-11-21T08:15:31.183Z,99527.34
2022-11-21T08:20:34.607Z,99534.38
2022-11-21T08:25:39.402Z,99533.21
2022-11-21T08:30:43.373Z,99534.55
2022-11-21T08:35:46.472Z,99524.96
2022-11-21T08:41:14.693Z,99529.30
2022-11-21T08:46:20.742Z,99530.13
2022-11-21T08:51:24.152Z,99533.73
2022-11-21T08:56:27.979Z,99532.48
2022-11-21T09:01:31.176Z,99535.31
2022-11-21T09:06:34.800Z,99538.72
2022-11-21T09:11:38.519Z,99532.70
2022-11-21T09:17:02.422Z,99537.48
2022-11-21T09:22:05.929Z,99540.26
2022-11-21T09:27:09.035Z,99532.89
2022-11-21T09:32:12.240Z,99532.23
2022-11-21T09:37:15.552Z,99521.34
2022-11-21T09:42:38.416Z,99509.30
2022-11-21T09:47:52.019Z,99509.72
2022-11-21T09:53:03.980Z,99515.10
2022-11-21T09:58:16.507Z,99513.48
2022-11-21T10:03:22.777Z,99516.14
2022-11-21T10:08:41.459Z,99508.67
2022-11-21T10:14:13.441Z,99502.98
2022-11-21T10:19:28.935Z,99496.45
2022-11-21T10:24:34.906Z,99492.19
2022-11-21T10:29:40.980Z,99491.06
2022-11-21T10:34:44.393Z,99490.63
2022-11-21T10:39:51.202Z,99478.77
2022-11-21T10:45:13.233Z,99475.92
2022-11-21T10:50:38.971Z,99479.92
2022-11-21T10:55:59.483Z,99479.23
2022-11-21T11:01:03.160Z,99474.73
2022-11-21T11:06:06.514Z,99476.34
2022-11-21T11:11:15.729Z,99477.30
2022-11-21T11:16:22.139Z,99474.94
2022-11-21T11:21:41.741Z,99472.94
2022-11-21T11:26:48.549Z,99473.41
2022-11-21T11:31:54.913Z,99466.20
2022-11-21T11:37:17.685Z,99472.50
2022-11-21T11:43:18.433Z,99480.48
2022-11-21T11:48:22.376Z,99474.55
2022-11-21T11:53:40.823Z,99473.81
2022-11-21T11:58:52.940Z,99476.46
2022-11-21T12:04:13.865Z,99477.31
2022-11-21T12:09:28.627Z,99476.16
2022-11-21T12:15:30.729Z,99480.13
2022-11-21T12:20:57.356Z,99475.33
2022-11-21T12:26:35.000Z,99469.62
2022-11-21T12:32:20.395Z,99463.83
2022-11-21T12:37:59.342Z,99462.15
2022-11-21T12:43:47.161Z,99460.73
2022-11-21T12:49:42.527Z,99461.86
2022-11-21T12:55:05.406Z,99462.81
2022-11-21T13:00:14.646Z,99459.41
2022-11-21T13:05:29.326Z,99453.58
2022-11-21T13:10:33.551Z,99452.27
2022-11-21T13:15:49.677Z,99451.88
2022-11-21T13:20:54.307Z,99452.68
2022-11-21T13:25:57.406Z,99450.04
2022-11-21T13:31:03.630Z,99454.48
2022-11-21T13:36:10.386Z,99444.36
2022-11-21T13:41:55.611Z,99443.84
2022-11-21T13:47:27.449Z,99446.79
2022-11-21T13:52:42.739Z,99445.94
2022-11-21T13:58:16.361Z,99439.55
2022-11-21T14:03:34.824Z,99435.67
2022-11-21T14:08:38.238Z,99431.52
2022-11-21T14:13:48.399Z,99432.31
2022-11-21T14:18:53.946Z,99438.73
2022-11-21T14:24:04.968Z,99437.36
2022-11-21T14:29:27.006Z,99437.23
2022-11-21T14:34:33.281Z,99438.42
2022-11-21T14:39:44.714Z,99441.65
2022-11-21T14:45:08.200Z,99436.36
2022-11-21T14:50:27.048Z,99436.71
2022-11-21T14:55:33.059Z,99440.87
2022-11-21T15:00:58.574Z,99438.37
2022-11-21T15:06:06.810Z,99432.70
2022-11-21T15:11:12.403Z,99432.73
2022-11-21T15:16:16.160Z,99431.73
2022-11-21T15:21:19.881Z,99421.92
2022-11-21T15:26:33.636Z,99420.92
2022-11-21T15:31:37.464Z,99415.34
2022-11-21T15:36:40.768Z,99411.56
2022-11-21T15:41:44.181Z,99406.04
2022-11-21T15:46:52.302Z,99400.33
2022-11-21T15:52:11.058Z,99399.79
2022-11-21T15:57:16.982Z,99399.88
2022-11-21T16:02:21.648Z,99397.17
2022-11-21T16:07:25.037Z,99396.34
2022-11-21T16:12:29.799Z,99395.30
2022-11-21T16:17:33.156Z,99392.73
2022-11-21T16:22:36.573Z,99395.52
2022-11-21T16:27:39.983Z,99395.73
2022-11-21T16:32:43.499Z,99391.48
2022-11-21T16:37:47.261Z,99387.13
2022-11-21T16:42:50.731Z,99383.01
2022-11-21T16:47:54.349Z,99380.79
2022-11-21T16:52:57.664Z,99382.59
2022-11-21T16:58:00.971Z,99385.25
2022-11-21T17:03:05.199Z,99385.97
2022-11-21T17:08:08.613Z,99387.85
2022-11-21T17:13:13.155Z,99381.98
2022-11-21T17:18:16.463Z,99378.91
2022-11-21T17:23:19.877Z,99386.21
2022-11-21T17:28:22.986Z,99389.45
2022-11-21T17:33:26.391Z,99390.40
2022-11-21T17:38:30.216Z,99389.06
2022-11-21T17:43:35.370Z,99383.30
2022-11-21T17:48:39.193Z,99382.31
2022-11-21T17:53:45.164Z,99385.14
2022-11-21T17:58:48.785Z,99386.36
2022-11-21T18:03:59.160Z,99386.73
2022-11-21T18:09:02.570Z,99384.86
2022-11-21T18:14:07.008Z,99381.04
2022-11-21T18:19:13.928Z,99380.17
2022-11-21T18:24:17.628Z,99383.40
2022-11-21T18:29:38.530Z,99376.98
2022-11-21T18:34:43.808Z,99369.59
2022-11-21T18:39:48.048Z,99368.48
2022-11-21T18:44:52.161Z,99372.70
2022-11-21T18:49:57.010Z,99373.13
2022-11-21T18:55:01.639Z,99372.83
2022-11-21T19:00:07.461Z,99375.04
2022-11-21T19:05:16.213Z,99371.20
2022-11-21T19:15:48.605Z,99371.02
2022-11-21T19:20:54.255Z,99372.33
2022-11-21T19:26:02.905Z,99368.84
2022-11-21T19:31:09.139Z,99375.25
2022-11-21T19:36:19.478Z,99382.78
2022-11-21T19:41:29.046Z,99385.30
2022-11-21T19:46:35.785Z,99391.65
2022-11-21T19:51:42.359Z,99394.35
2022-11-21T19:56:48.787Z,99395.28
2022-11-21T20:01:53.004Z,99392.88
2022-11-21T20:06:57.735Z,99397.30
2022-11-21T20:12:02.171Z,99398.10
2022-11-21T20:17:05.683Z,99397.15
2022-11-21T20:22:08.998Z,99394.94
2022-11-21T20:27:13.279Z,99391.88
2022-11-21T20:32:17.151Z,99395.16
2022-11-21T20:37:21.585Z,99396.26
2022-11-21T20:42:25.830Z,99399.96
2022-11-21T20:47:31.161Z,99403.52
2022-11-21T20:58:01.964Z,99412.49
2022-11-21T21:03:06.197Z,99405.41
2022-11-21T21:08:09.714Z,99400.85
2022-11-21T21:13:13.124Z,99406.63
2022-11-21T21:18:16.434Z,99409.95
2022-11-21T21:23:19.743Z,99411.89
2022-11-21T21:28:23.261Z,99407.90
2022-11-21T21:33:26.981Z,99409.67
2022-11-21T21:38:32.648Z,99409.45
2022-11-21T21:43:36.158Z,99418.81
2022-11-21T21:48:40.851Z,99418.54
2022-11-21T21:53:45.955Z,99416.99
2022-11-21T21:58:50.294Z,99411.04
2022-11-21T22:03:58.462Z,99408.83
2022-11-21T22:09:02.444Z,99409.77
2022-11-21T22:14:10.562Z,99413.33
2022-11-21T22:19:13.771Z,99407.65
2022-11-21T22:24:25.372Z,99410.34
2022-11-21T22:29:29.403Z,99415.70
2022-11-21T22:34:32.945Z,99422.58
2022-11-21T22:39:36.328Z,99427.89
2022-11-21T22:44:39.437Z,99424.63
2022-11-21T22:49:42.644Z,99419.25
2022-11-21T22:54:46.158Z,99421.31
2022-11-21T22:59:49.577Z,99413.16
2022-11-21T23:04:52.781Z,99409.77
2022-11-21T23:09:57.525Z,99413.19
2022-11-21T23:15:00.629Z,99413.80
2022-11-21T23:20:05.172Z,99406.66
2022-11-21T23:25:08.683Z,99394.67
2022-11-21T23:30:12.549Z,99396.70
2022-11-21T23:35:16.224Z,99397.95
2022-11-21T23:40:20.456Z,99393.65
2022-11-21T23:45:23.868Z,99397.89
2022-11-21T23:50:27.180Z,99407.57
2022-11-21T23:55:30.797Z,99416.17
